createdAt,value
2023-05-04T04:02:49.800Z,101857.00
2023-05-04T04:05:18.073Z,101857.00
2023-05-04T04:07:46.267Z,101847.00
2023-05-04T04:10:14.453Z,101852.00
2023-05-04T04:12:53.119Z,101747.00
2023-05-04T04:15:21.675Z,101862.00
2023-05-04T04:17:51.313Z,101851.00
2023-05-04T04:20:19.876Z,101856.00
2023-05-04T04:22:48.094Z,101849.00
2023-05-04T04:25:16.364Z,101848.00
2023-05-04T04:27:44.706Z,101856.00
2023-05-04T04:30:14.410Z,101844.00
2023-05-04T04:32:42.816Z,101850.00
2023-05-04T04:35:12.599Z,101848.00
2023-05-04T04:37:40.881Z,101856.00
2023-05-04T04:40:11.121Z,101856.00
2023-05-04T04:42:39.404Z,101846.00
2023-05-04T04:45:09.358Z,101849.00
2023-05-04T04:47:37.644Z,101850.00
2023-05-04T04:50:07.667Z,101801.00
2023-05-04T04:52:38.084Z,101848.00
2023-05-04T04:55:08.657Z,101854.00
2023-05-04T04:57:36.929Z,101852.00
2023-05-04T05:00:11.081Z,101852.00
2023-05-04T05:02:39.355Z,101858.00
2023-05-04T05:05:08.636Z,101859.00
2023-05-04T05:07:38.485Z,101850.00
2023-05-04T05:10:08.734Z,101863.00
2023-05-04T05:12:37.061Z,101855.00
2023-05-04T05:15:06.284Z,101850.00
2023-05-04T05:17:35.614Z,101851.00
2023-05-04T05:20:05.273Z,101856.00
2023-05-04T05:22:34.102Z,101850.00
2023-05-04T05:25:04.378Z,101853.00
2023-05-04T05:27:33.680Z,101851.00
2023-05-04T05:30:03.092Z,101856.00
2023-05-04T05:32:31.593Z,101849.00
2023-05-04T05:34:59.851Z,101850.00
2023-05-04T05:37:28.677Z,101852.00
2023-05-04T05:39:56.983Z,101842.00
2023-05-04T05:42:26.733Z,101851.00
2023-05-04T05:44:55.193Z,101860.00
2023-05-04T05:47:23.500Z,101859.00
2023-05-04T05:49:51.658Z,101856.00
2023-05-04T05:52:19.883Z,101848.00
2023-05-04T05:54:48.097Z,101852.00
2023-05-04T05:57:17.117Z,101855.00
2023-05-04T05:59:47.370Z,101857.00
2023-05-04T06:02:15.735Z,101842.00
2023-05-04T06:04:44.936Z,101850.00
2023-05-04T06:07:13.967Z,101848.00
2023-05-04T06:09:42.335Z,101848.00
2023-05-04T06:12:13.416Z,101852.00
2023-05-04T06:14:41.868Z,101847.00
2023-05-04T06:17:11.636Z,101853.00
2023-05-04T06:19:39.945Z,101852.00
2023-05-04T06:22:08.245Z,101855.00
2023-05-04T06:24:36.584Z,101847.00
2023-05-04T06:27:05.013Z,101853.00
2023-05-04T06:29:34.048Z,101851.00
2023-05-04T06:32:02.617Z,101845.00
2023-05-04T06:34:32.237Z,101854.00
2023-05-04T06:37:00.593Z,101862.00
2023-05-04T06:39:28.847Z,101858.00
2023-05-04T06:41:57.104Z,101857.00
2023-05-04T06:44:25.494Z,101858.00
2023-05-04T06:46:54.169Z,101864.00
2023-05-04T06:49:22.340Z,101861.00
2023-05-04T06:51:51.917Z,101864.00
2023-05-04T06:54:20.194Z,101871.00
2023-05-04T06:56:48.392Z,101860.00
2023-05-04T06:59:16.900Z,101871.00
2023-05-04T07:01:45.792Z,101861.00
2023-05-04T07:04:16.310Z,101859.00
2023-05-04T07:06:44.721Z,101870.00
2023-05-04T07:09:14.355Z,101872.00
2023-05-04T07:11:42.518Z,101869.00
2023-05-04T07:14:11.225Z,101863.00
2023-05-04T07:16:39.562Z,101872.00
2023-05-04T07:19:08.306Z,101862.00
2023-05-04T07:21:36.548Z,101865.00
2023-05-04T07:24:06.942Z,101864.00
2023-05-04T07:26:36.563Z,101860.00
2023-05-04T07:29:04.776Z,101869.00
2023-05-04T07:31:34.258Z,101856.00
2023-05-04T07:34:02.480Z,101848.00
2023-05-04T07:36:30.692Z,101842.00
2023-05-04T07:38:59.216Z,101846.00
2023-05-04T07:41:27.447Z,101854.00
2023-05-04T07:43:57.036Z,101849.00
2023-05-04T07:46:26.245Z,101846.00
2023-05-04T07:48:54.482Z,101848.00
2023-05-04T07:51:22.749Z,101838.00
2023-05-04T07:53:50.921Z,101846.00
2023-05-04T07:56:19.115Z,101850.00
2023-05-04T07:58:47.548Z,101827.00
2023-05-04T08:01:17.517Z,101830.00
2023-05-04T08:03:45.988Z,101829.00
2023-05-04T08:06:14.281Z,101830.00
2023-05-04T08:08:44.706Z,101831.00
2023-05-04T08:11:20.629Z,101829.00
2023-05-04T08:13:51.193Z,101835.00
2023-05-04T08:16:20.693Z,101828.00
2023-05-04T08:18:49.015Z,101827.00
2023-05-04T08:21:17.464Z,101828.00
2023-05-04T08:23:45.707Z,101833.00
2023-05-04T08:26:13.951Z,101831.00
2023-05-04T08:28:42.715Z,101835.00
2023-05-04T08:31:11.099Z,101816.00
2023-05-04T08:33:40.752Z,101822.00
2023-05-04T08:36:10.156Z,101814.00
2023-05-04T08:38:38.417Z,101812.00
2023-05-04T08:41:07.237Z,101809.00
2023-05-04T08:43:37.113Z,101815.00
2023-05-04T08:46:07.033Z,101815.00
2023-05-04T08:48:35.501Z,101821.00
2023-05-04T08:51:08.285Z,101816.00
2023-05-04T08:53:41.102Z,101812.00
2023-05-04T08:56:13.275Z,101806.00
2023-05-04T08:58:49.869Z,101804.00
2023-05-04T09:01:19.624Z,101803.00
2023-05-04T09:03:49.965Z,101798.00
2023-05-04T09:06:20.219Z,101801.00
2023-05-04T09:08:48.480Z,101799.00
2023-05-04T09:11:16.696Z,101802.00
2023-05-04T09:13:45.315Z,101803.00
2023-05-04T09:16:14.955Z,101804.00
2023-05-04T09:18:45.592Z,101810.00
2023-05-04T09:21:14.303Z,101809.00
2023-05-04T09:23:51.621Z,101804.00
2023-05-04T09:26:29.760Z,101808.00
2023-05-04T09:28:58.641Z,101805.00
2023-05-04T09:31:27.354Z,101802.00
2023-05-04T09:33:55.529Z,101809.00
2023-05-04T09:36:25.115Z,101793.00
2023-05-04T09:38:55.326Z,101796.00
2023-05-04T09:41:34.042Z,101799.00
2023-05-04T09:44:03.393Z,101812.00
2023-05-04T09:46:32.384Z,101789.00
2023-05-04T09:49:00.580Z,101795.00
2023-05-04T09:51:29.664Z,101800.00
2023-05-04T09:54:03.755Z,101765.00
2023-05-04T09:56:48.071Z,101780.00
2023-05-04T09:59:20.396Z,101788.00
2023-05-04T10:01:49.714Z,101782.00
2023-05-04T10:04:18.034Z,101777.00
2023-05-04T10:06:46.985Z,101770.00
2023-05-04T10:09:17.426Z,101776.00
2023-05-04T10:11:46.290Z,101769.00
2023-05-04T10:14:14.863Z,101761.00
2023-05-04T10:16:56.355Z,101759.00
2023-05-04T10:19:51.814Z,101746.00
2023-05-04T10:22:37.486Z,101757.00
2023-05-04T10:25:36.048Z,101757.00
2023-05-04T10:28:20.145Z,101745.00
2023-05-04T10:30:48.513Z,101747.00
2023-05-04T10:33:16.789Z,101733.00
2023-05-04T10:35:55.041Z,101725.00
2023-05-04T10:38:34.081Z,101739.00
2023-05-04T10:41:15.390Z,101709.00
2023-05-04T10:43:48.563Z,101724.00
2023-05-04T10:46:21.237Z,101722.00
2023-05-04T10:48:49.954Z,101713.00
2023-05-04T10:51:24.328Z,101726.00
2023-05-04T10:53:54.154Z,101714.00
2023-05-04T10:56:25.515Z,101718.00
2023-05-04T10:58:54.213Z,101715.00
2023-05-04T11:01:23.270Z,101716.00
2023-05-04T11:03:53.779Z,101704.00
2023-05-04T11:06:26.311Z,101698.00
2023-05-04T11:09:06.414Z,101687.00
2023-05-04T11:11:39.939Z,101698.00
2023-05-04T11:14:08.412Z,101690.00
2023-05-04T11:16:36.700Z,101690.00
2023-05-04T11:19:12.566Z,101682.00
2023-05-04T11:21:42.181Z,101685.00
2023-05-04T11:24:10.754Z,101691.00
2023-05-04T11:26:49.446Z,101682.00
2023-05-04T11:29:17.734Z,101680.00
2023-05-04T11:31:55.725Z,101687.00
2023-05-04T11:34:24.145Z,101678.00
2023-05-04T11:36:54.515Z,101683.00
2023-05-04T11:39:22.778Z,101677.00
2023-05-04T11:41:52.456Z,101687.00
2023-05-04T11:44:21.380Z,101673.00
2023-05-04T11:46:51.698Z,101675.00
2023-05-04T11:49:20.652Z,101670.00
2023-05-04T11:51:48.873Z,101676.00
2023-05-04T11:54:24.464Z,101670.00
2023-05-04T11:56:54.495Z,101674.00
2023-05-04T11:59:22.718Z,101670.00
2023-05-04T12:01:51.095Z,101665.00
2023-05-04T12:04:19.372Z,101667.00
2023-05-04T12:06:47.657Z,101653.00
2023-05-04T12:09:16.736Z,101660.00
2023-05-04T12:11:57.025Z,101648.00
2023-05-04T12:14:28.497Z,101651.00
2023-05-04T12:16:57.884Z,101651.00
2023-05-04T12:19:26.333Z,101656.00
2023-05-04T12:21:58.429Z,101658.00
2023-05-04T12:24:29.026Z,101652.00
2023-05-04T12:26:58.600Z,101659.00
2023-05-04T12:29:26.812Z,101648.00
2023-05-04T12:31:55.086Z,101660.00
2023-05-04T12:34:23.509Z,101640.00
2023-05-04T12:36:52.578Z,101646.00
2023-05-04T12:39:21.069Z,101654.00
2023-05-04T12:41:49.296Z,101654.00
2023-05-04T12:44:18.945Z,101654.00
2023-05-04T12:46:47.287Z,101648.00
2023-05-04T12:49:15.924Z,101649.00
2023-05-04T12:51:44.530Z,101653.00
2023-05-04T12:54:12.788Z,101647.00
2023-05-04T12:56:41.355Z,101640.00
2023-05-04T12:59:09.547Z,101642.00
2023-05-04T13:01:40.658Z,101632.00
2023-05-04T13:04:09.360Z,101626.00
2023-05-04T13:06:37.618Z,101624.00
2023-05-04T13:09:06.403Z,101626.00
2023-05-04T13:11:34.678Z,101618.00
2023-05-04T13:14:03.563Z,101627.00
2023-05-04T13:16:31.891Z,101633.00
2023-05-04T13:19:02.075Z,101639.00
2023-05-04T13:21:30.486Z,101631.00
2023-05-04T13:23:59.241Z,101621.00
2023-05-04T13:26:27.610Z,101609.00
2023-05-04T13:28:55.987Z,101617.00
2023-05-04T13:31:24.284Z,101613.00
2023-05-04T13:33:52.460Z,101609.00
2023-05-04T13:36:22.059Z,101605.00
2023-05-04T13:38:50.326Z,101596.00
2023-05-04T13:41:18.650Z,101592.00
2023-05-04T13:43:46.895Z,101587.00
2023-05-04T13:46:15.175Z,101595.00
2023-05-04T13:48:43.404Z,101591.00
2023-05-04T13:51:11.642Z,101593.00
2023-05-04T13:53:41.217Z,101577.00
2023-05-04T13:56:09.507Z,101594.00
2023-05-04T13:58:37.765Z,101580.00
2023-05-04T14:01:06.503Z,101582.00
2023-05-04T14:03:34.713Z,101576.00
2023-05-04T14:06:03.577Z,101578.00
2023-05-04T14:08:31.789Z,101565.00
2023-05-04T14:11:01.340Z,101567.00
2023-05-04T14:13:29.651Z,101572.00
2023-05-04T14:15:58.329Z,101561.00
2023-05-04T14:18:27.860Z,101556.00
2023-05-04T14:20:56.150Z,101549.00
2023-05-04T14:23:24.472Z,101549.00
2023-05-04T14:25:53.202Z,101544.00
2023-05-04T14:28:23.733Z,101547.00
2023-05-04T14:30:52.047Z,101547.00
2023-05-04T14:33:21.418Z,101540.00
2023-05-04T14:35:49.681Z,101537.00
2023-05-04T14:38:17.941Z,101523.00
2023-05-04T14:40:48.388Z,101523.00
2023-05-04T14:43:17.706Z,101527.00
2023-05-04T14:45:47.701Z,101528.00
2023-05-04T14:48:17.332Z,101525.00
2023-05-04T14:50:45.625Z,101523.00
2023-05-04T14:53:13.857Z,101521.00
2023-05-04T14:55:42.509Z,101517.00
2023-05-04T14:58:10.757Z,101520.00
2023-05-04T15:00:39.699Z,101511.00
2023-05-04T15:03:09.877Z,101488.00
2023-05-04T15:05:38.354Z,101504.00
2023-05-04T15:08:06.957Z,101508.00
2023-05-04T15:10:35.208Z,101504.00
2023-05-04T15:13:03.968Z,101501.00
2023-05-04T15:15:32.194Z,101497.00
2023-05-04T15:18:00.476Z,101499.00
2023-05-04T15:20:30.415Z,101491.00
2023-05-04T15:22:59.965Z,101488.00
2023-05-04T15:25:28.517Z,101493.00
2023-05-04T15:27:56.726Z,101483.00
2023-05-04T15:30:24.968Z,101481.00
2023-05-04T15:32:53.248Z,101474.00
2023-05-04T15:35:21.653Z,101479.00
2023-05-04T15:37:51.505Z,101469.00
2023-05-04T15:40:19.733Z,101463.00
2023-05-04T15:42:47.964Z,101460.00
2023-05-04T15:45:16.586Z,101458.00
2023-05-04T15:47:45.179Z,101458.00
2023-05-04T15:50:13.822Z,101450.00
2023-05-04T15:52:42.098Z,101449.00
2023-05-04T15:55:24.822Z,101455.00
2023-05-04T15:57:54.755Z,101458.00
2023-05-04T16:00:23.885Z,101451.00
2023-05-04T16:02:52.240Z,101451.00
2023-05-04T16:05:21.308Z,101439.00
2023-05-04T16:07:52.264Z,101447.00
2023-05-04T16:10:22.188Z,101431.00
2023-05-04T16:12:50.475Z,101445.00
2023-05-04T16:15:19.065Z,101447.00
2023-05-04T16:17:47.297Z,101449.00
2023-05-04T16:20:15.573Z,101443.00
2023-05-04T16:22:43.878Z,101442.00
2023-05-04T16:25:12.181Z,101439.00
2023-05-04T16:27:41.989Z,101431.00
2023-05-04T16:30:11.499Z,101430.00
2023-05-04T16:32:39.897Z,101426.00
2023-05-04T16:35:10.665Z,101420.00
2023-05-04T16:37:39.512Z,101423.00
2023-05-04T16:40:14.069Z,101414.00
2023-05-04T16:42:44.161Z,101412.00
2023-05-04T16:45:14.577Z,101408.00
2023-05-04T16:47:43.766Z,101406.00
2023-05-04T16:50:14.204Z,101398.00
2023-05-04T16:52:42.832Z,101401.00
2023-05-04T16:55:12.366Z,101397.00
2023-05-04T16:57:40.936Z,101401.00
2023-05-04T17:00:13.305Z,101398.00
2023-05-04T17:02:41.773Z,101390.00
2023-05-04T17:05:11.239Z,101388.00
2023-05-04T17:07:40.351Z,101384.00
2023-05-04T17:10:10.902Z,101380.00
2023-05-04T17:12:39.272Z,101388.00
2023-05-04T17:15:10.628Z,101394.00
2023-05-04T17:17:38.975Z,101389.00
2023-05-04T17:20:14.899Z,101386.00
2023-05-04T17:22:43.952Z,101380.00
2023-05-04T17:25:13.023Z,101383.00
2023-05-04T17:27:42.365Z,101380.00
2023-05-04T17:30:13.936Z,101385.00
2023-05-04T17:32:42.279Z,101389.00
2023-05-04T17:35:21.163Z,101365.00
2023-05-04T17:37:57.599Z,101384.00
2023-05-04T17:40:26.989Z,101379.00
2023-05-04T17:42:55.555Z,101381.00
2023-05-04T17:45:25.531Z,101385.00
2023-05-04T17:47:53.969Z,101383.00
2023-05-04T17:50:22.520Z,101379.00
2023-05-04T17:52:55.152Z,101380.00
2023-05-04T17:55:24.803Z,101380.00
2023-05-04T17:57:54.583Z,101380.00
2023-05-04T18:00:26.005Z,101378.00
2023-05-04T18:02:54.632Z,101376.00
2023-05-04T18:05:26.311Z,101377.00
2023-05-04T18:07:55.098Z,101377.00
2023-05-04T18:10:23.382Z,101387.00
2023-05-04T18:12:51.608Z,101383.00
2023-05-04T18:15:20.029Z,101384.00
2023-05-04T18:17:50.873Z,101392.00
2023-05-04T18:20:19.707Z,101402.00
2023-05-04T18:22:48.207Z,101404.00
2023-05-04T18:25:16.634Z,101402.00
2023-05-04T18:27:44.974Z,101409.00
2023-05-04T18:30:13.511Z,101399.00
2023-05-04T18:32:41.739Z,101384.00
2023-05-04T18:35:11.674Z,101392.00
2023-05-04T18:37:39.990Z,101384.00
2023-05-04T18:40:10.256Z,101389.00
2023-05-04T18:42:38.643Z,101388.00
2023-05-04T18:45:10.256Z,101407.00
2023-05-04T18:47:38.557Z,101402.00
2023-05-04T18:50:08.773Z,101411.00
2023-05-04T18:52:38.574Z,101408.00
2023-05-04T18:55:07.958Z,101416.00
2023-05-04T18:57:36.958Z,101414.00
2023-05-04T19:00:06.991Z,101406.00
2023-05-04T19:02:35.634Z,101415.00
2023-05-04T19:05:04.048Z,101415.00
2023-05-04T19:07:32.220Z,101419.00
2023-05-04T19:10:02.098Z,101420.00
2023-05-04T19:12:30.714Z,101426.00
2023-05-04T19:14:59.197Z,101425.00
2023-05-04T19:17:28.012Z,101419.00
2023-05-04T19:19:57.028Z,101417.00
2023-05-04T19:22:25.863Z,101416.00
2023-05-04T19:24:55.452Z,101403.00
2023-05-04T19:27:25.066Z,101405.00
2023-05-04T19:29:53.247Z,101409.00
2023-05-04T19:32:24.763Z,101413.00
2023-05-04T19:34:53.613Z,101406.00
2023-05-04T19:37:22.171Z,101398.00
2023-05-04T19:39:50.620Z,101400.00
2023-05-04T19:42:18.822Z,101408.00
2023-05-04T19:44:48.366Z,101408.00
2023-05-04T19:47:17.005Z,101405.00
2023-05-04T19:49:48.382Z,101405.00
2023-05-04T19:52:17.209Z,101403.00
2023-05-04T19:54:48.217Z,101408.00
2023-05-04T19:57:16.470Z,101407.00
2023-05-04T19:59:46.814Z,101408.00
2023-05-04T20:02:16.959Z,101407.00
2023-05-04T20:04:45.213Z,101415.00
2023-05-04T20:07:13.519Z,101398.00
2023-05-04T20:09:41.848Z,101403.00
2023-05-04T20:12:10.790Z,101408.00
2023-05-04T20:14:40.450Z,101407.00
2023-05-04T20:17:09.050Z,101411.00
2023-05-04T20:19:40.548Z,101411.00
2023-05-04T20:22:08.776Z,101402.00
2023-05-04T20:24:37.068Z,101407.00
2023-05-04T20:27:05.422Z,101404.00
2023-05-04T20:29:33.722Z,101403.00
2023-05-04T20:32:02.922Z,101406.00
2023-05-04T20:34:31.722Z,101405.00
2023-05-04T20:37:01.326Z,101410.00
2023-05-04T20:39:29.509Z,101403.00
2023-05-04T20:41:58.062Z,101397.00
2023-05-04T20:44:26.300Z,101397.00
2023-05-04T20:46:54.527Z,101403.00
2023-05-04T20:49:22.781Z,101378.00
2023-05-04T20:51:50.949Z,101402.00
2023-05-04T20:54:20.532Z,101403.00
2023-05-04T20:56:48.796Z,101395.00
2023-05-04T20:59:17.086Z,101396.00
